KROC/ROC METAR and TAF weather

Enter ICAO airport designator
Station Type Date Time Source
KROC METAR 2019/12/16 05:54 UTC NOAA

KROC 160554Z 23006KT 10SM BKN049 BKN080 M05/M09 A3018 RMK AO2 SLP230 60000 T10501094 11022 21056 53004


Station Type Date Time Source
KROC Decoded METAR 2019/12/16 05:54 UTC NOAA

GREATER ROCHESTER INTERNATIONAL , NY, United States (KROC) 43-07N 077-41W 178M
Dec 16, 2019 - 12:54 AM EST / 2019.12.16 0554 UTC
Wind: from the SW (230 degrees) at 7 MPH (6 KT):0
Visibility: 10 mile(s):0
Sky conditions: mostly cloudy
Temperature: 23.0 F (-5.0 C)
Windchill: 14 F (-10 C):1
Dew Point: 15.1 F (-9.4 C)
Relative Humidity: 71%
Pressure (altimeter): 30.18 in. Hg (1022 hPa)
Pressure tendency: 0.01 inches (0.4 hPa) higher than three hours ago
ob: KROC 160554Z 23006KT 10SM BKN049 BKN080 M05/M09 A3018 RMK AO2 SLP230 60000 T10501094 11022 21056 53004
cycle: 6

Station Type Date Time Source
KROC TAF 2019/12/16 06:24 UTC NOAA

TAF KROC 160521Z 1606/1706 24005KT P6SM FEW035 SCT150
FM161200 19004KT P6SM BKN080
FM162000 VRB03KT P6SM BKN150
FM170500 00000KT P6SM OVC120

Example: see airport list